Meadville, PA

4:34 AM EDT on September 16, 2014 (GMT -0400)
Port Meadville | Change Station
CLOSE
Current Station
Airport
Location: Meadville,
Elevation: 1401 ft
Nearby Weather Stations

Elev 1401 ft 41.63 °N, 80.21 °W | Updated 20 minutes ago

Overcast
Overcast
52 °F
Feels Like 52 °F
N
6
Wind Variable Wind from NNW

Today
High -- | Low -- °F
--% Chance of Precip.
Yesterday
High -- | Low -- °F
Precip. -- in
7:02 AM 7:28 PM
Waning Gibbous, 47% visible
Pressure 30.07 in
Visibility 4.0 miles
Clouds Mostly Cloudy 500 ft
Mostly Cloudy 1500 ft
Overcast 2100 ft
Dew Point 49 °F
Humidity 89%
Rainfall 0.14 in
Snow Depth Not available.
UV 0 out of 12
Pollen 3.80 out of 12
Air Quality Not available.
Flu Activity Not available.
SPECI KGKJ 160814Z AUTO 33005KT 4SM BR BKN005 BKN015 OVC021 11/09 A3007 RMK AO2 T01110094 TSNO

More Conditions Fewer Conditions

Pressure 30.07 in
Visibility 4.0 miles
Clouds Mostly Cloudy 500 ft
Mostly Cloudy 1500 ft
Overcast 2100 ft
Dew Point 49 °F
Humidity 89%
Rainfall 0.14 in
Snow Depth Not available.
UV 0 out of 12
Pollen 3.80 out of 12
Air Quality Not available.
Flu Activity Not available.
SPECI KGKJ 160814Z AUTO 33005KT 4SM BR BKN005 BKN015 OVC021 11/09 A3007 RMK AO2 T01110094 TSNO

More Conditions Fewer Conditions

10-Day Weather Forecast

Almanac

Astronomy

Sep. 16, 2014 Rise Set
Actual Time 7:02 AM EDT 7:28 PM EDT
Civil Twilight 6:34 AM EDT 7:56 PM EDT
Nautical Twilight 6:01 AM EDT 8:29 PM EDT
Astronomical Twilight 5:27 AM EDT 9:02 PM EDT
Moon 12:07 AM EDT 2:54 PM EDT
Length of Visible Light 13h 22m
Length of Day
12h 26m
Tomorrow will be 2m 45s shorter.
Waning Gibbous, 47% of the Moon is Illuminated
Today
Waning Gibbous
Sep 24
New
Oct 1
First Quarter
Oct 8
Full
Oct 15
Last Quarter

Today's Extremes

State Highs State Lows

Community

WunderPhotos

Upload Photos

1,753,712 photos uploaded!

WunderBlogs® & News

Nearby

Snow Depth

Station Depth Elevation
No new snow has been reported.

Earthquake Activity

City Distance Mag. Time & Date
No recent earthquake activity has been reported nearby.
Minimum magnitude displayed is 2.5.

Coastal Water Temperatures

Place Temperature
Fairport, OH 66.0 °F
Buffalo, NY 68.0 °F

Nearby Weather Stations